Storm Lake, IA

6:36 PM CDT on August 19, 2017 (GMT -0500)
Storm Lake Municipal

Weather History for KSLB - April, 2014

Change the Weather History Date:

Thursday, April 17, 2014

  Actual Average Record
Temperature  
Mean Temperature 37 °F -  
Max Temperature 48 °F 59 °F 82 °F (2005)
Min Temperature 26 °F 39 °F 23 °F (1997)
Degree Days  
Heating Degree Days 28    
Moisture  
Dew Point 27 °F    
Average Humidity 71    
Maximum Humidity 100    
Minimum Humidity 43    
Precipitation  
Precipitation 0.00 in - - ()
Sea Level Pressure  
Sea Level Pressure 30.23 in    
Wind  
Wind Speed 16 mph (North)    
Max Wind Speed 25 mph    
Max Gust Speed 31 mph    
Visibility 10 miles    
Events      
Averages and records for this station are not official NWS values.
T = Trace of Precipitation, MM = Missing Value Source: NWS Daily Summary

Daily Weather History Graph

Daily Weather History Graph

Search for Another Location

Airport or City:

Trip Planner

Search our weather history database for the weather conditions in past years. The results will help you decide how hot, cold, wet, or windy it might be!

Date:

Astronomy

Apr. 17, 2014 Rise Set
Actual Time 6:36 AM CDT 8:05 PM CDT
Civil Twilight 6:06 AM CDT 8:34 PM CDT
Nautical Twilight 5:31 AM CDT 9:10 PM CDT
Astronomical Twilight 4:53 AM CDT 9:48 PM CDT
Moon 10:54 PM CDT (4/17) 8:06 AM CDT (4/17)
Length of Visible Light 14h 27m
Length of Day
13h 28m
Waning Gibbous, 93% of the Moon is Illuminated
Apr 17
Waning Gibbous
Apr 22
Last Quarter
Apr 29
New
May 6
First Quarter
May 14
Full

Hourly Weather History & Observations

Time (CDT) Temp. Windchill Dew Point Humidity Pressure Visibility Wind Dir Wind Speed Gust Speed Precip Events Conditions
12:15 AM 30.2 °F 16.2 °F 30.2 °F 100% 30.03 in 10.0 mi NNW 25.3 mph 31.1 mph N/A   Overcast
12:35 AM 30.2 °F 17.8 °F 30.2 °F 100% 30.05 in 9.0 mi NNW 19.6 mph 26.5 mph N/A   Overcast
12:55 AM 30.2 °F 17.1 °F 28.4 °F 93% 30.06 in 10.0 mi NNW 21.9 mph - N/A   Overcast
1:15 AM 30.2 °F 17.1 °F 28.4 °F 93% 30.07 in 10.0 mi NNW 21.9 mph 28.8 mph N/A   Overcast
1:35 AM 30.2 °F 17.4 °F 28.4 °F 93% 30.08 in 10.0 mi NNW 20.7 mph 31.1 mph N/A   Overcast
1:55 AM 30.2 °F 16.8 °F 28.4 °F 93% 30.09 in 10.0 mi NNW 23.0 mph 31.1 mph N/A   Overcast
2:15 AM 30.2 °F 17.4 °F 28.4 °F 93% 30.10 in 10.0 mi NNW 20.7 mph 28.8 mph N/A   Overcast
2:35 AM 30.2 °F 18.1 °F 28.4 °F 93% 30.11 in 10.0 mi NW 18.4 mph 25.3 mph N/A   Overcast
2:55 AM 30.2 °F 17.8 °F 28.4 °F 93% 30.12 in 10.0 mi NW 19.6 mph - N/A   Overcast
3:15 AM 30.2 °F 17.4 °F 26.6 °F 86% 30.12 in 10.0 mi NNW 20.7 mph 26.5 mph N/A   Overcast
3:35 AM 30.2 °F 18.9 °F 26.6 °F 86% 30.13 in 10.0 mi NW 16.1 mph - N/A   Overcast
3:55 AM 30.2 °F 18.9 °F 26.6 °F 86% 30.14 in 10.0 mi NW 16.1 mph 23.0 mph N/A   Overcast
4:15 AM 30.2 °F 18.1 °F 26.6 °F 86% 30.14 in 10.0 mi NNW 18.4 mph 24.2 mph N/A   Overcast
4:35 AM 28.4 °F 15.4 °F 26.6 °F 93% 30.14 in 10.0 mi NNW 19.6 mph - N/A   Overcast
4:55 AM 28.4 °F 15.1 °F 26.6 °F 93% 30.14 in 10.0 mi NNW 20.7 mph 26.5 mph N/A   Overcast
5:15 AM 28.4 °F 15.1 °F 26.6 °F 93% 30.15 in 10.0 mi NW 20.7 mph 26.5 mph N/A   Overcast
5:35 AM 28.4 °F 15.8 °F 26.6 °F 93% 30.15 in 10.0 mi NW 18.4 mph 28.8 mph N/A   Overcast
5:55 AM 28.4 °F 15.1 °F 26.6 °F 93% 30.16 in 10.0 mi NW 20.7 mph 27.6 mph N/A   Overcast
6:15 AM 28.4 °F 15.4 °F 24.8 °F 86% 30.18 in 10.0 mi NW 19.6 mph - N/A   Overcast
6:35 AM 28.4 °F 16.6 °F 24.8 °F 86% 30.20 in 10.0 mi NW 16.1 mph 24.2 mph N/A   Overcast
6:55 AM 26.6 °F 15.7 °F 24.8 °F 93% 30.21 in 10.0 mi NW 12.7 mph - N/A   Overcast
7:15 AM 26.6 °F 17.5 °F 24.8 °F 93% 30.23 in 10.0 mi NW 9.2 mph - N/A   Overcast
7:35 AM 26.6 °F 16.2 °F 24.8 °F 93% 30.25 in 10.0 mi NW 11.5 mph - N/A   Mostly Cloudy
7:55 AM 28.4 °F 17.5 °F 24.8 °F 86% 30.25 in 10.0 mi NW 13.8 mph 19.6 mph N/A   Partly Cloudy
8:15 AM 28.4 °F 16.6 °F 24.8 °F 86% 30.27 in 10.0 mi NW 16.1 mph - N/A   Scattered Clouds
8:35 AM 28.4 °F 18.0 °F 24.8 °F 86% 30.28 in 10.0 mi NW 12.7 mph - N/A   Mostly Cloudy
8:55 AM 28.4 °F 18.0 °F 24.8 °F 86% 30.28 in 10.0 mi NW 12.7 mph - N/A   Mostly Cloudy
9:15 AM 28.4 °F 18.0 °F 24.8 °F 86% 30.29 in 10.0 mi NW 12.7 mph - N/A   Mostly Cloudy
9:35 AM 30.2 °F 20.8 °F 24.8 °F 80% 30.28 in 10.0 mi NNW 11.5 mph 19.6 mph N/A   Scattered Clouds
9:55 AM 32.0 °F 21.6 °F 26.6 °F 80% 30.28 in 10.0 mi NNW 15.0 mph - N/A   Scattered Clouds
10:15 AM 32.0 °F 22.5 °F 26.6 °F 80% 30.29 in 10.0 mi NW 12.7 mph - N/A   Mostly Cloudy
10:35 AM 33.8 °F 24.8 °F 26.6 °F 75% 30.30 in 10.0 mi NW 12.7 mph 18.4 mph N/A   Mostly Cloudy
11:15 AM 35.6 °F 27.5 °F 26.6 °F 70% 30.30 in - NNW 11.5 mph 18.4 mph N/A   Scattered Clouds
11:35 AM 37.4 °F 28.9 °F 26.6 °F 65% 30.30 in 10.0 mi NNW 13.8 mph - N/A   Partly Cloudy
11:55 AM 37.4 °F 30.3 °F 26.6 °F 65% 30.30 in 10.0 mi North 10.4 mph 18.4 mph N/A   Clear
12:15 PM 39.2 °F 33.0 °F 28.4 °F 65% 30.30 in 10.0 mi NNW 9.2 mph 16.1 mph N/A   Clear
12:35 PM 41.0 °F 33.5 °F 28.4 °F 61% 30.30 in 10.0 mi North 13.8 mph - N/A   Clear
12:55 PM 41.0 °F 36.4 °F 28.4 °F 61% 30.29 in 10.0 mi Variable 6.9 mph 15.0 mph N/A   Clear
1:15 PM 41.0 °F 35.2 °F 26.6 °F 57% 30.29 in 10.0 mi NNE 9.2 mph - N/A   Clear
1:35 PM 42.8 °F 37.5 °F 26.6 °F 53% 30.29 in 10.0 mi NE 9.2 mph - N/A   Clear
1:55 PM 42.8 °F 36.6 °F 26.6 °F 53% 30.29 in 10.0 mi North 11.5 mph - N/A   Clear
2:15 PM 44.6 °F 40.7 °F 26.6 °F 49% 30.29 in 10.0 mi Variable 6.9 mph 15.0 mph N/A   Clear
2:35 PM 44.6 °F 41.4 °F 26.6 °F 49% 30.29 in 10.0 mi Variable 5.8 mph 12.7 mph N/A   Clear
2:55 PM 46.4 °F 41.5 °F 26.6 °F 46% 30.29 in 10.0 mi NNW 10.4 mph - N/A   Clear
3:15 PM 46.4 °F 42.4 °F 26.6 °F 46% 30.28 in 10.0 mi NW 8.1 mph - N/A   Clear
3:35 PM 46.4 °F 42.9 °F 26.6 °F 46% 30.28 in 10.0 mi Variable 6.9 mph 13.8 mph N/A   Clear
3:55 PM 46.4 °F 42.4 °F 26.6 °F 46% 30.27 in 10.0 mi NNW 8.1 mph - N/A   Clear
4:15 PM 46.4 °F 45.2 °F 26.6 °F 46% 30.26 in 10.0 mi Variable 3.5 mph 11.5 mph N/A   Clear
4:35 PM 48.2 °F - 26.6 °F 43% 30.25 in 10.0 mi ENE 10.4 mph - N/A   Clear
4:55 PM 48.2 °F - 26.6 °F 43% 30.25 in 10.0 mi NE 9.2 mph - N/A   Clear
5:15 PM 48.2 °F - 26.6 °F 43% 30.26 in 10.0 mi ENE 9.2 mph - N/A   Clear
5:35 PM 48.2 °F - 26.6 °F 43% 30.26 in 10.0 mi ENE 9.2 mph - N/A   Clear
5:55 PM 48.2 °F - 26.6 °F 43% 30.25 in 10.0 mi ENE 9.2 mph - N/A   Clear
6:15 PM 48.2 °F - 26.6 °F 43% 30.25 in 10.0 mi NE 6.9 mph 13.8 mph N/A   Clear
6:35 PM 46.4 °F 42.9 °F 24.8 °F 43% 30.25 in 10.0 mi ENE 6.9 mph - N/A   Clear
6:55 PM 46.4 °F 42.9 °F 26.6 °F 46% 30.26 in 10.0 mi NE 6.9 mph - N/A   Clear
7:15 PM 46.4 °F 43.5 °F 26.6 °F 46% 30.26 in 10.0 mi NE 5.8 mph - N/A   Clear
7:35 PM 44.6 °F 40.7 °F 26.6 °F 49% 30.27 in 10.0 mi NNE 6.9 mph - N/A   Clear
7:55 PM 42.8 °F 38.6 °F 26.6 °F 53% 30.26 in 10.0 mi NE 6.9 mph - N/A   Clear
8:15 PM 42.8 °F 39.3 °F 26.6 °F 53% 30.27 in 10.0 mi NE 5.8 mph - N/A   Clear
8:35 PM 41.0 °F 36.4 °F 26.6 °F 57% 30.26 in 10.0 mi NE 6.9 mph - N/A   Clear
8:55 PM 39.2 °F 33.6 °F 26.6 °F 61% 30.27 in 10.0 mi NE 8.1 mph - N/A   Partly Cloudy
9:15 PM 39.2 °F 33.6 °F 28.4 °F 65% 30.27 in 10.0 mi ENE 8.1 mph - N/A   Mostly Cloudy
9:35 PM 39.2 °F 33.0 °F 28.4 °F 65% 30.28 in 10.0 mi ENE 9.2 mph - N/A   Scattered Clouds
9:55 PM 39.2 °F 32.0 °F 28.4 °F 65% 30.28 in 10.0 mi ENE 11.5 mph - N/A   Clear
10:15 PM 37.4 °F 29.8 °F 28.4 °F 70% 30.28 in 10.0 mi ENE 11.5 mph - N/A   Scattered Clouds
10:35 PM 37.4 °F 30.3 °F 28.4 °F 70% 30.28 in 10.0 mi East 10.4 mph - N/A   Scattered Clouds
10:55 PM 35.6 °F 28.0 °F 28.4 °F 75% 30.28 in 9.0 mi East 10.4 mph - N/A   Mostly Cloudy
11:15 PM 33.8 °F 27.0 °F 28.4 °F 81% 30.29 in 10.0 mi East 8.1 mph - N/A   Mostly Cloudy
11:35 PM 33.8 °F 26.4 °F 28.4 °F 81% 30.29 in 10.0 mi East 9.2 mph - N/A   Mostly Cloudy
11:55 PM 35.6 °F 28.6 °F 30.2 °F 81% 30.29 in 10.0 mi East 9.2 mph - N/A   Mostly Cloudy